AirNav   Bose ProFlight Series 2 Headset
 
 631 users online  

9PS4 Pheasant Run Heliport
Easton/Forks Township, Pennsylvania, USA

GOING TO EASTON/FORKS TOWNSHIP?


FAA INFORMATION EFFECTIVE 02 JANUARY 2020

Location

FAA Identifier: 9PS4
Lat/Long: 40-44-58.3510N 075-12-36.6370W
40-44.972517N 075-12.610617W
40.7495419,-75.2101769
(estimated)
Elevation: 400 ft. / 122 m (estimated)
Variation: 12W (1990)
From city: 9 miles NW of EASTON-FORKS TOWNSHIP, PA
Time zone: UTC -5 (UTC -4 during Daylight Saving Time)
Zip code: 18040

Heliport Operations

Heliport use: Private use. Permission required prior to landing
Activation date: 03/1994
Control tower: no
ARTCC: NEW YORK CENTER
FSS: WILLIAMSPORT FLIGHT SERVICE STATION
Attendance: UNATNDD
Wind indicator: yes
Segmented circle: no

Heliport Communications

WX ASOS at ABE (12 nm SW): 126.975 (610-266-3579)
WX AWOS-3 at XLL (17 nm SW): 127.875 (610-231-3111)

Nearby radio navigation aids

VOR radial/distance  VOR name  Freq  Var
FJCr093/11.2ALLENTOWN VORTAC117.5010W
BWZr272/17.9BROADWAY VOR/DME114.2011W
STWr237/21.4STILLWATER VOR/DME109.6011W
SBJr305/23.5SOLBERG VOR/DME112.9010W
ETXr074/23.8EAST TEXAS VOR/DME110.2009W
ARDr345/32.8YARDLEY VOR/DME108.2010W
PTWr036/35.4POTTSTOWN VORTAC116.5009W
SAXr249/35.9SPARTA VORTAC115.7011W
LVZr155/38.2WILKES-BARRE VORTAC111.6010W

 
NDB name  Hdg/Dist  Freq  Var  ID
CHATHAM284/35.525413WCAT -.-. .- -
AMBLER017/37.627512WING .. -. --.

Heliport Services

Runway Information

Helipad H1

Dimensions: 150 x 150 ft. / 46 x 46 m
Surface: turf
Traffic pattern: leftleft

Heliport Ownership and Management from official FAA records

Ownership: Privately-owned
Owner: CURTISS A POWELL
4305 RICHMOND ROAD
EASTON, PA 18042
Phone 215-559-1371
Manager: CURTISS A POWELL
4305 RICHMOND ROAD
EASTON, PA 18042
Phone 215-559-1371

Heliport Operational Statistics

Aircraft based on the field: 1
Helicopters: 1
    

Additional Remarks

A52-H1 150 FT TENSION WIRES 4 MILES EAST.
FOR CD CTC ALLENTOWN APCH AT 800-728-6322.

Instrument Procedures

There are no published instrument procedures at 9PS4.

Some nearby airports with instrument procedures:

N43 - Braden Airpark (2 nm W)
KABE - Lehigh Valley International Airport (12 nm SW)
N85 - Alexandria Airport (13 nm SE)
N40 - Sky Manor Airport (15 nm SE)
1N7 - Blairstown Airport (16 nm NE)
KXLL - Allentown Queen City Municipal Airport (17 nm SW)
N53 - Stroudsburg-Pocono Airport (17 nm N)
 
Loc | Ops | Rwys | IFR | FBO | Links
Com | Nav | Svcs | Stats | Notes
Area around 9PS4 (Pheasant Run Heliport)
 
Road maps at: MapQuest Bing Google
 
Aerial photo
No photo
 
Sectional chart

 
Airport distance calculator
Flying to Pheasant Run Heliport? Find the distance to fly.

From to 9PS4

Sunrise and sunset
Times for 19-Jan-2020
 Local
(UTC-5)
 Zulu
(UTC)
Morning civil twilight06:5211:52
Sunrise07:2212:22
Sunset17:0122:01
Evening civil twilight17:3122:31

Current date and time
Zulu (UTC)  19-Jan-2020 10:41:52
Local (UTC-5)  19-Jan-2020 05:41:52
 
METAR
KABE 
12nm SW 
191008Z 24006KT 5SM HZ FEW006 01/M02 A2970 RMK AO2 T00111017
KXLL 
17nm SW 
191015Z AUTO 21005KT 4SM BR OVC005 01/00 A2972 RMK AO2
KUKT 
20nm SW 
191020Z AUTO 00000KT 10SM CLR 01/01 A2971 RMK A01
KCKZ 
22nm S 
191015Z AUTO 27006KT 10SM CLR 01/01 A2971 RMK AO2
KMPO 
24nm N 
190953Z AUTO 27012KT 10SM OVC034 M01/M02 A2961 RMK AO2 SLP052 T10111022
TAF
KABE 
12nm SW 
190912Z 1909/2006 26006KT P6SM BKN008 OVC060 TEMPO 1909/1911 SCT008 BKN060 FM191100 27008KT P6SM BKN045 FM191400 28012G24KT P6SM BKN045 FM192300 30010G18KT P6SM BKN045 TEMPO 2000/2004 3SM -SHSN OVC025
NOTAMs
Click for the latest NOTAMs
NOTAMs are issued by the DoD/FAA and will open in a separate window not controlled by AirNav.

 

 
 

Would you like to see your business listed on this page?

 If your business provides an interesting product or service to pilots, flight crews, aircraft, or users of the Pheasant Run Heliport, you should consider listing it here.  To start the listing process, click on the button below
 
Add a business
 

Other Pages about Pheasant Run Heliport

Update a link
 
Copyright © AirNav, LLC. All rights reserved. Privacy Policy  Contact